createdAt,value
2023-06-10T00:02:31.779Z,97115.80
2023-06-10T00:05:14.500Z,97118.00
2023-06-10T00:08:34.484Z,97118.40
2023-06-10T00:12:04.649Z,97111.80
2023-06-10T00:15:53.922Z,97117.60
2023-06-10T00:19:43.307Z,97123.80
2023-06-10T00:23:15.726Z,97117.40
2023-06-10T00:27:02.911Z,97120.60
2023-06-10T00:30:52.092Z,97120.20
2023-06-10T00:34:34.152Z,97116.80
2023-06-10T00:38:19.480Z,97120.20
2023-06-10T00:42:08.495Z,97119.60
2023-06-10T00:45:45.933Z,97116.00
2023-06-10T00:49:18.030Z,97122.20
2023-06-10T00:52:49.686Z,97119.40
2023-06-10T00:56:20.916Z,97123.40
2023-06-10T00:59:53.172Z,97124.20
2023-06-10T01:03:20.660Z,97121.20
2023-06-10T01:06:40.652Z,97120.60
2023-06-10T01:10:37.667Z,97120.80
2023-06-10T01:13:52.523Z,97121.60
2023-06-10T01:17:19.710Z,97120.40
2023-06-10T01:20:20.117Z,97117.40
2023-06-10T01:23:43.382Z,97111.60
2023-06-10T01:26:46.091Z,97118.20
2023-06-10T01:30:12.298Z,97113.40
2023-06-10T01:33:13.707Z,97117.60
2023-06-10T01:36:24.945Z,97119.00
2023-06-10T01:40:02.400Z,97121.00
2023-06-10T01:43:27.672Z,97117.40
2023-06-10T01:46:41.450Z,97119.60
2023-06-10T01:49:39.197Z,97119.20
2023-06-10T01:52:42.704Z,97112.80
2023-06-10T01:55:33.366Z,97110.20
2023-06-10T01:59:08.545Z,97108.20
2023-06-10T02:02:08.637Z,97113.80
2023-06-10T02:05:38.480Z,97108.40
2023-06-10T02:08:38.741Z,97105.60
2023-06-10T02:11:14.478Z,97108.00
2023-06-10T02:14:31.541Z,97108.40
2023-06-10T02:17:45.958Z,97110.80
2023-06-10T02:21:05.199Z,97113.20
2023-06-10T02:24:29.966Z,97105.80
2023-06-10T02:27:18.360Z,97111.80
2023-06-10T02:30:20.782Z,97115.80
2023-06-10T02:33:04.086Z,97118.00
2023-06-10T02:36:02.694Z,97124.20
2023-06-10T02:39:11.890Z,97125.00
2023-06-10T02:42:40.226Z,97126.40
2023-06-10T02:46:01.564Z,97123.00
2023-06-10T02:49:09.972Z,97121.40
2023-06-10T02:52:41.059Z,97124.20
2023-06-10T02:55:46.911Z,97130.00
2023-06-10T02:58:57.435Z,97131.80
2023-06-10T03:01:55.315Z,97128.00
2023-06-10T03:05:00.657Z,97123.60
2023-06-10T03:08:39.324Z,97125.40
2023-06-10T03:11:57.944Z,97133.20
2023-06-10T03:15:18.760Z,97130.00
2023-06-10T03:18:49.734Z,97131.00
2023-06-10T03:22:31.783Z,97131.80
2023-06-10T03:25:50.936Z,97133.40
2023-06-10T03:29:18.203Z,97134.60
2023-06-10T03:32:22.765Z,97134.20
2023-06-10T03:35:36.299Z,97132.00
2023-06-10T03:39:10.955Z,97132.60
2023-06-10T03:43:00.201Z,97133.40
2023-06-10T03:46:39.379Z,97132.40
2023-06-10T03:49:54.783Z,97132.00
2023-06-10T03:53:01.802Z,97129.80
2023-06-10T03:56:29.723Z,97132.00
2023-06-10T03:59:49.265Z,97130.20
2023-06-10T04:03:11.094Z,97124.80
2023-06-10T04:05:45.591Z,97119.80
2023-06-10T04:08:51.248Z,97121.40
2023-06-10T04:11:49.343Z,97122.80
2023-06-10T04:15:03.374Z,97119.80
2023-06-10T04:18:15.244Z,97123.20
2023-06-10T04:21:29.624Z,97126.00
2023-06-10T04:24:27.792Z,97130.20
2023-06-10T04:27:22.529Z,97130.40
2023-06-10T04:31:00.698Z,97128.80
2023-06-10T04:34:33.296Z,97133.00
2023-06-10T04:37:43.061Z,97137.60
2023-06-10T04:40:58.002Z,97137.60
2023-06-10T04:44:25.302Z,97132.80
2023-06-10T04:47:36.404Z,97134.60
2023-06-10T04:51:25.577Z,97130.80
2023-06-10T04:54:47.142Z,97131.20
2023-06-10T04:58:36.237Z,97129.80
2023-06-10T05:01:50.886Z,97132.20
2023-06-10T05:05:02.199Z,97133.00
2023-06-10T05:08:24.533Z,97126.80
2023-06-10T05:11:58.701Z,97135.20
2023-06-10T05:15:07.094Z,97144.00
2023-06-10T05:18:08.823Z,97141.00
2023-06-10T05:20:40.782Z,97142.40
2023-06-10T05:23:50.855Z,97140.80
2023-06-10T05:26:32.890Z,97141.80
2023-06-10T05:29:31.212Z,97143.80
2023-06-10T05:32:16.618Z,97143.40
2023-06-10T05:35:18.709Z,97149.20
2023-06-10T05:38:07.632Z,97147.80
2023-06-10T05:40:58.262Z,97144.40
2023-06-10T05:43:41.148Z,97149.80
2023-06-10T05:46:32.688Z,97149.00
2023-06-10T05:49:21.570Z,97154.60
2023-06-10T05:52:21.334Z,97155.20
2023-06-10T05:55:39.688Z,97151.60
2023-06-10T05:58:39.798Z,97153.00
2023-06-10T06:01:34.115Z,97155.00
2023-06-10T06:04:33.620Z,97158.00
2023-06-10T06:07:44.289Z,97158.40
2023-06-10T06:11:14.892Z,97157.80
2023-06-10T06:14:49.265Z,97153.60
2023-06-10T06:18:03.413Z,97153.40
2023-06-10T06:21:36.098Z,97150.40
2023-06-10T06:24:44.473Z,97148.00
2023-06-10T06:28:14.313Z,97150.60
2023-06-10T06:31:26.521Z,97146.00
2023-06-10T06:34:55.611Z,97143.60
2023-06-10T06:38:45.422Z,97145.40
2023-06-10T06:42:22.308Z,97143.60
2023-06-10T06:45:54.676Z,97139.40
2023-06-10T06:49:06.424Z,97138.00
2023-06-10T06:52:08.287Z,97132.80
2023-06-10T06:55:20.339Z,97133.00
2023-06-10T06:58:34.723Z,97134.40
2023-06-10T07:01:37.270Z,97138.00
2023-06-10T07:04:51.559Z,97132.40
2023-06-10T07:08:19.198Z,97128.80
2023-06-10T07:12:00.765Z,97128.00
2023-06-10T07:15:52.450Z,97127.00
2023-06-10T07:19:10.442Z,97122.60
2023-06-10T07:22:51.027Z,97126.40
2023-06-10T07:26:07.729Z,97121.20
2023-06-10T07:29:39.326Z,97114.20
2023-06-10T07:32:50.168Z,97110.60
2023-06-10T07:36:11.037Z,97106.80
2023-06-10T07:39:42.967Z,97107.60
2023-06-10T07:42:56.077Z,97107.80
2023-06-10T07:45:56.498Z,97112.40
2023-06-10T07:49:14.597Z,97109.00
2023-06-10T07:52:07.911Z,97113.60
2023-06-10T07:55:01.778Z,97108.40
2023-06-10T07:57:48.735Z,97109.00
2023-06-10T08:00:54.144Z,97108.40
2023-06-10T08:04:06.189Z,97111.20
2023-06-10T08:07:23.363Z,97106.00
2023-06-10T08:10:23.388Z,97100.80
2023-06-10T08:13:10.076Z,97102.40
2023-06-10T08:16:37.079Z,97101.60
2023-06-10T08:19:31.944Z,97100.60
2023-06-10T08:22:46.197Z,97099.00
2023-06-10T08:25:34.488Z,97094.60
2023-06-10T08:28:28.971Z,97091.40
2023-06-10T08:31:22.929Z,97092.80
2023-06-10T08:34:27.798Z,97086.60
2023-06-10T08:37:18.064Z,97086.20
2023-06-10T08:40:25.661Z,97080.20
2023-06-10T08:43:54.632Z,97078.20
2023-06-10T08:46:45.942Z,97073.00
2023-06-10T08:49:57.772Z,97070.00
2023-06-10T08:52:45.374Z,97070.40
2023-06-10T08:55:32.960Z,97068.80
2023-06-10T08:58:30.773Z,97065.60
2023-06-10T09:01:28.575Z,97064.20
2023-06-10T09:04:22.019Z,97068.80
2023-06-10T09:07:19.856Z,97065.40
2023-06-10T09:10:26.339Z,97068.00
2023-06-10T09:13:45.919Z,97066.00
2023-06-10T09:16:40.464Z,97059.40
2023-06-10T09:19:32.465Z,97056.80
2023-06-10T09:22:24.988Z,97056.00
2023-06-10T09:25:21.433Z,97059.20
2023-06-10T09:27:58.915Z,97058.80
2023-06-10T09:30:48.045Z,97053.80
2023-06-10T09:33:28.121Z,97050.00
2023-06-10T09:36:02.900Z,97053.20
2023-06-10T09:38:49.764Z,97055.20
2023-06-10T09:41:50.338Z,97049.40
2023-06-10T09:44:52.535Z,97050.20
2023-06-10T09:47:52.104Z,97047.00
2023-06-10T09:50:46.964Z,97051.20
2023-06-10T09:53:19.425Z,97051.00
2023-06-10T09:56:37.068Z,97051.20
2023-06-10T09:59:20.585Z,97050.00
2023-06-10T10:02:03.779Z,97042.20
2023-06-10T10:04:41.708Z,97047.20
2023-06-10T10:07:42.123Z,97042.40
2023-06-10T10:10:35.105Z,97048.60
2023-06-10T10:13:11.075Z,97042.60
2023-06-10T10:15:46.444Z,97036.80
2023-06-10T10:18:34.040Z,97037.00
2023-06-10T10:22:14.132Z,97031.20
2023-06-10T10:25:38.177Z,97029.60
2023-06-10T10:28:35.095Z,97028.40
2023-06-10T10:31:20.102Z,97027.40
2023-06-10T10:34:03.230Z,97030.20
2023-06-10T10:36:40.376Z,97038.80
2023-06-10T10:39:22.238Z,97040.40
2023-06-10T10:42:05.240Z,97038.80
2023-06-10T10:44:46.329Z,97038.20
2023-06-10T10:47:18.904Z,97036.00
2023-06-10T10:50:00.776Z,97033.40
2023-06-10T10:53:04.815Z,97035.60
2023-06-10T10:55:35.759Z,97033.80
2023-06-10T10:58:25.789Z,97033.00
2023-06-10T11:01:14.490Z,97031.40
2023-06-10T11:03:49.101Z,97027.00
2023-06-10T11:06:53.028Z,97026.00
2023-06-10T11:10:09.129Z,97025.60
2023-06-10T11:12:54.560Z,97028.60
2023-06-10T11:15:36.735Z,97030.00
2023-06-10T11:18:23.937Z,97033.80
2023-06-10T11:21:39.127Z,97042.40
2023-06-10T11:24:39.370Z,97045.20
2023-06-10T11:27:45.205Z,97047.00
2023-06-10T11:30:37.114Z,97047.80
2023-06-10T11:33:21.981Z,97051.20
2023-06-10T11:36:12.098Z,97050.20
2023-06-10T11:38:49.761Z,97041.80
2023-06-10T11:41:49.162Z,97039.80
2023-06-10T11:44:57.373Z,97043.00
2023-06-10T11:48:40.336Z,97037.40
2023-06-10T11:51:51.365Z,97031.40
2023-06-10T11:54:46.798Z,97031.00
2023-06-10T11:57:36.618Z,97027.40
2023-06-10T12:00:18.370Z,97028.60
2023-06-10T12:03:13.054Z,97024.20
2023-06-10T12:06:55.322Z,97015.40
2023-06-10T12:10:12.016Z,97015.40
2023-06-10T12:13:47.826Z,97016.00
2023-06-10T12:17:11.479Z,97015.80
2023-06-10T12:20:13.390Z,97015.80
2023-06-10T12:23:14.242Z,97023.20
2023-06-10T12:27:03.212Z,97013.00
2023-06-10T12:30:17.446Z,97006.80
2023-06-10T12:33:20.074Z,96998.80
2023-06-10T12:36:29.525Z,96994.00
2023-06-10T12:39:25.184Z,96986.00
2023-06-10T12:42:15.987Z,96983.00
2023-06-10T12:44:58.179Z,96979.40
2023-06-10T12:48:03.588Z,96980.20
2023-06-10T12:50:58.418Z,96973.00
2023-06-10T12:53:58.172Z,96965.80
2023-06-10T12:56:42.258Z,96961.80
2023-06-10T12:59:32.619Z,96962.80
2023-06-10T13:02:14.938Z,96959.00
2023-06-10T13:05:46.327Z,96954.60
2023-06-10T13:08:48.726Z,96950.60
2023-06-10T13:12:27.224Z,96938.60
2023-06-10T13:15:34.028Z,96934.60
2023-06-10T13:18:41.935Z,96929.20
2023-06-10T13:21:29.258Z,96936.40
2023-06-10T13:24:23.570Z,96932.80
2023-06-10T13:26:58.387Z,96930.80
2023-06-10T13:29:49.918Z,96929.00
2023-06-10T13:32:27.509Z,96930.60
2023-06-10T13:35:11.276Z,96927.40
2023-06-10T13:38:03.157Z,96920.20
2023-06-10T13:41:13.722Z,96911.80
2023-06-10T13:43:49.802Z,96905.80
2023-06-10T13:46:31.723Z,96899.40
2023-06-10T13:49:03.016Z,96900.00
2023-06-10T13:51:55.050Z,96896.00
2023-06-10T13:54:28.943Z,96895.00
2023-06-10T13:57:23.655Z,96896.40
2023-06-10T14:00:15.418Z,96899.60
2023-06-10T14:02:53.626Z,96905.00
2023-06-10T14:05:42.907Z,96907.60
2023-06-10T14:08:22.519Z,96903.20
2023-06-10T14:11:06.407Z,96903.60
2023-06-10T14:13:59.640Z,96895.00
2023-06-10T14:16:51.371Z,96894.00
2023-06-10T14:19:47.462Z,96891.60
2023-06-10T14:22:37.857Z,96887.80
2023-06-10T14:25:21.283Z,96884.80
2023-06-10T14:27:49.881Z,96889.60
2023-06-10T14:30:50.497Z,96894.80
2023-06-10T14:33:35.061Z,96893.00
2023-06-10T14:36:27.030Z,96895.60
2023-06-10T14:39:01.568Z,96899.40
2023-06-10T14:41:55.350Z,96891.60
2023-06-10T14:44:29.711Z,96899.20
2023-06-10T14:47:01.101Z,96902.40
2023-06-10T14:49:48.374Z,96896.40
2023-06-10T14:52:21.709Z,96896.20
2023-06-10T14:55:15.341Z,96894.40
2023-06-10T14:57:46.463Z,96894.80
2023-06-10T15:00:35.051Z,96899.40
2023-06-10T15:03:09.095Z,96904.20
2023-06-10T15:06:10.005Z,96904.40
2023-06-10T15:08:44.241Z,96900.80
2023-06-10T15:11:34.676Z,96891.40
2023-06-10T15:14:23.816Z,96896.80
2023-06-10T15:17:01.263Z,96901.80
2023-06-10T15:19:51.325Z,96909.00
2023-06-10T15:23:00.168Z,96915.20
2023-06-10T15:25:48.776Z,96916.60
2023-06-10T15:28:33.297Z,96911.40
2023-06-10T15:31:19.677Z,96912.60
2023-06-10T15:34:14.178Z,96909.00
2023-06-10T15:37:00.891Z,96908.40
2023-06-10T15:39:52.402Z,96908.20
2023-06-10T15:42:47.014Z,96913.40
2023-06-10T15:45:38.399Z,96917.40
2023-06-10T15:48:26.696Z,96923.40
2023-06-10T15:51:21.108Z,96925.20
2023-06-10T15:54:40.727Z,96913.40
2023-06-10T15:57:47.259Z,96907.40
2023-06-10T16:00:46.836Z,96904.00
2023-06-10T16:04:01.321Z,96912.40
2023-06-10T16:07:33.569Z,96914.60
2023-06-10T16:11:02.685Z,96919.00
2023-06-10T16:14:16.056Z,96923.80
2023-06-10T16:17:35.500Z,96925.00
2023-06-10T16:21:23.676Z,96931.00
2023-06-10T16:24:22.955Z,96930.80
2023-06-10T16:27:55.298Z,96928.60
2023-06-10T16:30:59.023Z,96931.00
2023-06-10T16:34:15.597Z,96926.80
2023-06-10T16:37:46.257Z,96929.40
2023-06-10T16:40:58.643Z,96930.20
2023-06-10T16:44:10.610Z,96945.80
2023-06-10T16:47:42.950Z,96949.80
2023-06-10T16:51:12.233Z,96964.00
2023-06-10T16:54:37.539Z,96976.60
2023-06-10T16:57:49.862Z,96979.60
2023-06-10T17:01:11.847Z,96984.80
2023-06-10T17:04:15.483Z,96992.20
2023-06-10T17:07:28.630Z,96991.00
2023-06-10T17:10:57.530Z,96989.80
2023-06-10T17:14:12.211Z,96988.60
2023-06-10T17:18:02.742Z,96996.00
2023-06-10T17:21:45.504Z,96992.80
2023-06-10T17:25:14.624Z,96995.40
2023-06-10T17:28:52.750Z,96990.40
2023-06-10T17:32:13.590Z,96996.40
2023-06-10T17:36:03.087Z,97006.80
2023-06-10T17:39:52.184Z,97013.80
2023-06-10T17:42:58.881Z,97019.40
2023-06-10T17:46:35.616Z,97026.80
2023-06-10T17:50:12.328Z,97035.40
2023-06-10T17:53:43.658Z,97042.40
2023-06-10T17:57:22.604Z,97046.80
2023-06-10T18:00:38.894Z,97048.00
2023-06-10T18:04:28.516Z,97048.80
2023-06-10T18:07:21.532Z,97055.00
2023-06-10T18:10:50.581Z,97058.20
2023-06-10T18:14:14.938Z,97049.40
2023-06-10T18:17:37.237Z,97055.20
2023-06-10T18:21:25.357Z,97061.40
2023-06-10T18:24:56.901Z,97062.40
2023-06-10T18:27:59.999Z,97065.40
2023-06-10T18:31:32.092Z,97070.20
2023-06-10T18:35:21.411Z,97076.40
2023-06-10T18:38:30.439Z,97071.20
2023-06-10T18:42:01.765Z,97074.40
2023-06-10T18:45:46.547Z,97079.00
2023-06-10T18:49:14.240Z,97079.80
2023-06-10T18:52:46.232Z,97082.00
2023-06-10T18:56:24.265Z,97081.00
2023-06-10T18:59:56.863Z,97084.20
2023-06-10T19:03:27.997Z,97079.00
2023-06-10T19:07:20.532Z,97084.00
2023-06-10T19:10:51.950Z,97084.20
2023-06-10T19:14:21.688Z,97093.60
2023-06-10T19:17:36.286Z,97092.60
2023-06-10T19:21:08.568Z,97097.20
2023-06-10T19:24:46.536Z,97095.40
2023-06-10T19:28:18.877Z,97098.20
2023-06-10T19:31:40.428Z,97102.00
2023-06-10T19:35:18.603Z,97106.20
2023-06-10T19:39:08.299Z,97100.20
2023-06-10T19:42:40.405Z,97101.80
2023-06-10T19:46:29.602Z,97102.00
2023-06-10T19:50:01.690Z,97097.00
2023-06-10T19:53:36.333Z,97102.60
2023-06-10T19:57:14.609Z,97105.80
2023-06-10T20:00:47.087Z,97111.00
2023-06-10T20:03:51.829Z,97117.80
2023-06-10T20:07:18.896Z,97112.20
2023-06-10T20:10:38.344Z,97114.20
2023-06-10T20:14:20.287Z,97110.40
2023-06-10T20:17:52.688Z,97115.20
2023-06-10T20:21:41.854Z,97113.80
2023-06-10T20:25:30.983Z,97108.00
2023-06-10T20:29:11.510Z,97108.80
2023-06-10T20:32:08.884Z,97111.20
2023-06-10T20:35:30.399Z,97113.40
2023-06-10T20:38:33.888Z,97110.20
2023-06-10T20:42:23.253Z,97106.40
2023-06-10T20:45:34.784Z,97106.40
2023-06-10T20:48:33.605Z,97097.20
2023-06-10T20:51:42.517Z,97102.20
2023-06-10T20:54:30.607Z,97102.20
2023-06-10T20:57:11.106Z,97094.40
2023-06-10T21:00:15.071Z,97095.00
2023-06-10T21:02:56.821Z,97087.20
2023-06-10T21:05:31.534Z,97090.80
2023-06-10T21:08:32.513Z,97093.20
2023-06-10T21:11:23.509Z,97101.60
2023-06-10T21:14:40.292Z,97106.60
2023-06-10T21:17:14.821Z,97104.40
2023-06-10T21:20:16.962Z,97100.80
2023-06-10T21:23:17.359Z,97099.20
2023-06-10T21:26:46.443Z,97103.20
2023-06-10T21:29:49.008Z,97095.60
2023-06-10T21:33:24.844Z,97090.40
2023-06-10T21:37:02.321Z,97094.60
2023-06-10T21:40:33.684Z,97098.40
2023-06-10T21:43:54.321Z,97091.20
2023-06-10T21:47:23.019Z,97094.00
2023-06-10T21:51:12.024Z,97090.40
2023-06-10T21:54:34.471Z,97094.20
2023-06-10T21:58:12.762Z,97095.80
2023-06-10T22:01:44.548Z,97094.60
2023-06-10T22:04:51.264Z,97084.40
2023-06-10T22:08:21.804Z,97080.80
2023-06-10T22:12:02.180Z,97075.40
2023-06-10T22:15:17.278Z,97077.20
2023-06-10T22:18:59.678Z,97081.60
2023-06-10T22:22:31.267Z,97080.00
2023-06-10T22:26:09.221Z,97067.80
2023-06-10T22:29:40.661Z,97081.80
2023-06-10T22:33:13.211Z,97082.80
2023-06-10T22:36:51.607Z,97076.20
2023-06-10T22:40:29.725Z,97082.00
2023-06-10T22:44:01.927Z,97076.80
2023-06-10T22:47:15.994Z,97077.40
2023-06-10T22:50:37.333Z,97081.60
2023-06-10T22:53:36.811Z,97087.20
2023-06-10T22:56:45.002Z,97086.00
2023-06-10T23:00:12.950Z,97077.60
2023-06-10T23:03:52.411Z,97084.60
2023-06-10T23:07:06.246Z,97088.20
2023-06-10T23:10:23.673Z,97083.40
2023-06-10T23:13:27.993Z,97082.40
2023-06-10T23:16:19.510Z,97079.60
2023-06-10T23:18:51.254Z,97079.60
2023-06-10T23:22:24.575Z,97081.00
2023-06-10T23:25:26.482Z,97077.20
2023-06-10T23:28:49.405Z,97075.80
2023-06-10T23:32:28.107Z,97076.40
2023-06-10T23:35:49.065Z,97077.80
2023-06-10T23:38:55.706Z,97077.60
2023-06-10T23:42:22.986Z,97077.00
2023-06-10T23:45:49.987Z,97075.00
2023-06-10T23:49:10.028Z,97069.60
2023-06-10T23:52:59.219Z,97069.00
2023-06-10T23:56:26.873Z,97067.00
2023-06-10T23:59:17.138Z,97067.40
